sensor_id;sensor_type;location;lat;lon;timestamp;P1;durP1;ratioP1;P2;durP2;ratioP2
11048;SDS011;5577;42.706;23.160;2022-10-16T00:01:41;14.17;;;10.60;;
11048;SDS011;5577;42.706;23.160;2022-10-16T00:04:25;14.77;;;10.50;;
11048;SDS011;5577;42.706;23.160;2022-10-16T00:07:09;13.10;;;9.00;;
11048;SDS011;5577;42.706;23.160;2022-10-16T00:09:53;13.27;;;9.97;;
11048;SDS011;5577;42.706;23.160;2022-10-16T00:12:37;10.70;;;9.37;;
11048;SDS011;5577;42.706;23.160;2022-10-16T00:15:21;12.67;;;9.60;;
11048;SDS011;5577;42.706;23.160;2022-10-16T00:18:05;12.33;;;8.70;;
11048;SDS011;5577;42.706;23.160;2022-10-16T00:20:49;11.27;;;8.97;;
11048;SDS011;5577;42.706;23.160;2022-10-16T00:23:33;12.57;;;8.83;;
11048;SDS011;5577;42.706;23.160;2022-10-16T00:26:18;12.17;;;8.63;;
11048;SDS011;5577;42.706;23.160;2022-10-16T00:29:03;9.97;;;8.70;;
11048;SDS011;5577;42.706;23.160;2022-10-16T00:31:48;10.73;;;8.80;;
11048;SDS011;5577;42.706;23.160;2022-10-16T00:34:32;12.53;;;8.67;;
11048;SDS011;5577;42.706;23.160;2022-10-16T00:37:16;11.83;;;9.67;;
11048;SDS011;5577;42.706;23.160;2022-10-16T00:40:00;13.53;;;9.70;;
11048;SDS011;5577;42.706;23.160;2022-10-16T00:42:44;12.67;;;9.63;;
11048;SDS011;5577;42.706;23.160;2022-10-16T00:45:27;11.93;;;9.57;;
11048;SDS011;5577;42.706;23.160;2022-10-16T00:48:12;10.47;;;8.93;;
11048;SDS011;5577;42.706;23.160;2022-10-16T00:50:57;12.97;;;9.10;;
11048;SDS011;5577;42.706;23.160;2022-10-16T00:53:42;11.83;;;9.10;;
11048;SDS011;5577;42.706;23.160;2022-10-16T00:56:27;11.23;;;9.30;;
11048;SDS011;5577;42.706;23.160;2022-10-16T00:59:16;11.70;;;9.23;;
11048;SDS011;5577;42.706;23.160;2022-10-16T01:02:03;12.07;;;9.87;;
11048;SDS011;5577;42.706;23.160;2022-10-16T01:04:50;14.50;;;9.80;;
11048;SDS011;5577;42.706;23.160;2022-10-16T01:10:35;12.70;;;8.90;;
11048;SDS011;5577;42.706;23.160;2022-10-16T01:13:38;9.43;;;7.97;;
11048;SDS011;5577;42.706;23.160;2022-10-16T01:16:31;11.73;;;9.03;;
11048;SDS011;5577;42.706;23.160;2022-10-16T01:19:36;13.37;;;9.57;;
11048;SDS011;5577;42.706;23.160;2022-10-16T01:22:44;12.40;;;8.53;;
11048;SDS011;5577;42.706;23.160;2022-10-16T01:28:57;12.87;;;8.97;;
11048;SDS011;5577;42.706;23.160;2022-10-16T01:31:44;10.97;;;8.77;;
11048;SDS011;5577;42.706;23.160;2022-10-16T01:34:39;12.43;;;9.10;;
11048;SDS011;5577;42.706;23.160;2022-10-16T01:40:21;11.30;;;9.23;;
11048;SDS011;5577;42.706;23.160;2022-10-16T01:43:11;9.27;;;8.17;;
11048;SDS011;5577;42.706;23.160;2022-10-16T01:45:58;9.73;;;8.23;;
11048;SDS011;5577;42.706;23.160;2022-10-16T01:48:43;11.73;;;9.43;;
11048;SDS011;5577;42.706;23.160;2022-10-16T01:51:28;10.60;;;7.90;;
11048;SDS011;5577;42.706;23.160;2022-10-16T01:54:13;12.70;;;8.87;;
11048;SDS011;5577;42.706;23.160;2022-10-16T01:57:00;12.90;;;8.80;;
11048;SDS011;5577;42.706;23.160;2022-10-16T01:59:46;12.90;;;8.40;;
11048;SDS011;5577;42.706;23.160;2022-10-16T02:02:36;10.83;;;7.60;;
11048;SDS011;5577;42.706;23.160;2022-10-16T02:05:26;11.33;;;7.80;;
11048;SDS011;5577;42.706;23.160;2022-10-16T02:08:14;14.00;;;9.47;;
11048;SDS011;5577;42.706;23.160;2022-10-16T02:10:58;9.43;;;8.13;;
11048;SDS011;5577;42.706;23.160;2022-10-16T02:13:55;11.23;;;7.80;;
11048;SDS011;5577;42.706;23.160;2022-10-16T02:16:50;10.40;;;8.17;;
11048;SDS011;5577;42.706;23.160;2022-10-16T02:19:34;10.87;;;8.50;;
11048;SDS011;5577;42.706;23.160;2022-10-16T02:22:21;9.80;;;8.00;;
11048;SDS011;5577;42.706;23.160;2022-10-16T02:25:15;9.87;;;8.37;;
11048;SDS011;5577;42.706;23.160;2022-10-16T02:28:19;10.33;;;8.43;;
11048;SDS011;5577;42.706;23.160;2022-10-16T02:31:27;11.30;;;8.97;;
11048;SDS011;5577;42.706;23.160;2022-10-16T02:34:14;10.23;;;8.17;;
11048;SDS011;5577;42.706;23.160;2022-10-16T02:37:01;12.83;;;8.83;;
11048;SDS011;5577;42.706;23.160;2022-10-16T02:39:48;11.83;;;9.10;;
11048;SDS011;5577;42.706;23.160;2022-10-16T02:42:34;10.10;;;7.97;;
11048;SDS011;5577;42.706;23.160;2022-10-16T02:45:19;11.10;;;8.80;;
11048;SDS011;5577;42.706;23.160;2022-10-16T02:48:04;14.10;;;8.87;;
11048;SDS011;5577;42.706;23.160;2022-10-16T02:50:48;13.47;;;8.97;;
11048;SDS011;5577;42.706;23.160;2022-10-16T02:53:32;12.23;;;8.63;;
11048;SDS011;5577;42.706;23.160;2022-10-16T02:56:16;11.93;;;9.37;;
11048;SDS011;5577;42.706;23.160;2022-10-16T02:59:00;10.67;;;9.27;;
11048;SDS011;5577;42.706;23.160;2022-10-16T03:01:44;13.17;;;9.40;;
11048;SDS011;5577;42.706;23.160;2022-10-16T03:04:28;11.97;;;9.17;;
11048;SDS011;5577;42.706;23.160;2022-10-16T03:07:12;12.73;;;9.17;;
11048;SDS011;5577;42.706;23.160;2022-10-16T03:09:56;16.27;;;9.67;;
11048;SDS011;5577;42.706;23.160;2022-10-16T03:12:41;11.60;;;9.07;;
11048;SDS011;5577;42.706;23.160;2022-10-16T03:15:25;10.97;;;8.70;;
11048;SDS011;5577;42.706;23.160;2022-10-16T03:18:09;13.07;;;9.70;;
11048;SDS011;5577;42.706;23.160;2022-10-16T03:20:53;11.57;;;9.00;;
11048;SDS011;5577;42.706;23.160;2022-10-16T03:23:37;11.73;;;9.33;;
11048;SDS011;5577;42.706;23.160;2022-10-16T03:26:21;12.10;;;9.73;;
11048;SDS011;5577;42.706;23.160;2022-10-16T03:29:05;11.70;;;8.90;;
11048;SDS011;5577;42.706;23.160;2022-10-16T03:31:50;13.10;;;9.10;;
11048;SDS011;5577;42.706;23.160;2022-10-16T03:34:34;11.23;;;8.67;;
11048;SDS011;5577;42.706;23.160;2022-10-16T03:37:18;11.27;;;9.17;;
11048;SDS011;5577;42.706;23.160;2022-10-16T03:40:03;10.37;;;8.17;;
11048;SDS011;5577;42.706;23.160;2022-10-16T03:42:47;11.10;;;9.07;;
11048;SDS011;5577;42.706;23.160;2022-10-16T03:45:31;11.23;;;8.83;;
11048;SDS011;5577;42.706;23.160;2022-10-16T03:48:15;12.37;;;9.17;;
11048;SDS011;5577;42.706;23.160;2022-10-16T03:50:59;13.47;;;9.77;;
11048;SDS011;5577;42.706;23.160;2022-10-16T03:53:43;13.27;;;9.77;;
11048;SDS011;5577;42.706;23.160;2022-10-16T03:56:27;10.90;;;9.40;;
11048;SDS011;5577;42.706;23.160;2022-10-16T03:59:11;12.87;;;9.27;;
11048;SDS011;5577;42.706;23.160;2022-10-16T04:01:55;12.30;;;9.87;;
11048;SDS011;5577;42.706;23.160;2022-10-16T04:04:39;13.07;;;9.37;;
11048;SDS011;5577;42.706;23.160;2022-10-16T04:07:23;14.00;;;9.73;;
11048;SDS011;5577;42.706;23.160;2022-10-16T04:10:07;12.47;;;9.77;;
11048;SDS011;5577;42.706;23.160;2022-10-16T04:12:51;12.67;;;9.60;;
11048;SDS011;5577;42.706;23.160;2022-10-16T04:15:35;13.27;;;9.97;;
11048;SDS011;5577;42.706;23.160;2022-10-16T04:18:19;11.30;;;9.30;;
11048;SDS011;5577;42.706;23.160;2022-10-16T04:21:04;13.07;;;9.80;;
11048;SDS011;5577;42.706;23.160;2022-10-16T04:23:49;9.83;;;8.33;;
11048;SDS011;5577;42.706;23.160;2022-10-16T04:26:33;10.70;;;8.13;;
11048;SDS011;5577;42.706;23.160;2022-10-16T04:29:17;11.50;;;8.97;;
11048;SDS011;5577;42.706;23.160;2022-10-16T04:32:01;12.53;;;9.07;;
11048;SDS011;5577;42.706;23.160;2022-10-16T04:34:45;13.53;;;9.70;;
11048;SDS011;5577;42.706;23.160;2022-10-16T04:37:29;13.73;;;9.30;;
11048;SDS011;5577;42.706;23.160;2022-10-16T04:40:13;14.13;;;10.53;;
11048;SDS011;5577;42.706;23.160;2022-10-16T04:42:57;14.67;;;11.53;;
11048;SDS011;5577;42.706;23.160;2022-10-16T04:45:41;18.67;;;12.53;;
11048;SDS011;5577;42.706;23.160;2022-10-16T04:48:25;15.83;;;11.67;;
11048;SDS011;5577;42.706;23.160;2022-10-16T04:51:09;15.00;;;11.93;;
11048;SDS011;5577;42.706;23.160;2022-10-16T04:53:54;16.30;;;11.87;;
11048;SDS011;5577;42.706;23.160;2022-10-16T04:56:38;22.67;;;14.10;;
11048;SDS011;5577;42.706;23.160;2022-10-16T04:59:31;22.93;;;13.03;;
11048;SDS011;5577;42.706;23.160;2022-10-16T05:02:15;17.87;;;12.93;;
11048;SDS011;5577;42.706;23.160;2022-10-16T05:04:59;18.50;;;13.00;;
11048;SDS011;5577;42.706;23.160;2022-10-16T05:07:43;16.27;;;12.33;;
11048;SDS011;5577;42.706;23.160;2022-10-16T05:10:27;18.13;;;12.77;;
11048;SDS011;5577;42.706;23.160;2022-10-16T05:13:11;14.47;;;12.10;;
11048;SDS011;5577;42.706;23.160;2022-10-16T05:15:55;13.80;;;10.63;;
11048;SDS011;5577;42.706;23.160;2022-10-16T05:18:40;14.67;;;9.70;;
11048;SDS011;5577;42.706;23.160;2022-10-16T05:21:24;13.70;;;9.47;;
11048;SDS011;5577;42.706;23.160;2022-10-16T05:24:08;12.27;;;9.77;;
11048;SDS011;5577;42.706;23.160;2022-10-16T05:26:53;12.17;;;8.83;;
11048;SDS011;5577;42.706;23.160;2022-10-16T05:29:37;11.73;;;10.50;;
11048;SDS011;5577;42.706;23.160;2022-10-16T05:32:21;15.33;;;10.40;;
11048;SDS011;5577;42.706;23.160;2022-10-16T05:35:05;17.33;;;10.40;;
11048;SDS011;5577;42.706;23.160;2022-10-16T05:37:49;18.33;;;10.93;;
11048;SDS011;5577;42.706;23.160;2022-10-16T05:40:33;17.60;;;11.93;;
11048;SDS011;5577;42.706;23.160;2022-10-16T05:43:19;15.37;;;11.97;;
11048;SDS011;5577;42.706;23.160;2022-10-16T05:46:04;16.73;;;11.47;;
11048;SDS011;5577;42.706;23.160;2022-10-16T05:48:51;28.43;;;18.40;;
11048;SDS011;5577;42.706;23.160;2022-10-16T05:51:35;68.70;;;50.13;;
11048;SDS011;5577;42.706;23.160;2022-10-16T05:54:19;25.50;;;19.93;;
11048;SDS011;5577;42.706;23.160;2022-10-16T05:57:03;18.50;;;16.03;;
11048;SDS011;5577;42.706;23.160;2022-10-16T05:59:49;21.10;;;17.07;;
11048;SDS011;5577;42.706;23.160;2022-10-16T06:02:33;20.90;;;18.10;;
11048;SDS011;5577;42.706;23.160;2022-10-16T06:05:17;16.33;;;13.87;;
11048;SDS011;5577;42.706;23.160;2022-10-16T06:08:01;17.63;;;12.73;;
11048;SDS011;5577;42.706;23.160;2022-10-16T06:10:45;18.57;;;14.57;;
11048;SDS011;5577;42.706;23.160;2022-10-16T06:13:30;18.53;;;11.90;;
11048;SDS011;5577;42.706;23.160;2022-10-16T06:16:14;19.53;;;14.47;;
11048;SDS011;5577;42.706;23.160;2022-10-16T06:18:57;16.50;;;12.03;;
11048;SDS011;5577;42.706;23.160;2022-10-16T06:21:43;15.43;;;10.87;;
11048;SDS011;5577;42.706;23.160;2022-10-16T06:24:27;14.90;;;11.20;;
11048;SDS011;5577;42.706;23.160;2022-10-16T06:27:11;12.77;;;10.83;;
11048;SDS011;5577;42.706;23.160;2022-10-16T06:29:55;13.87;;;10.10;;
11048;SDS011;5577;42.706;23.160;2022-10-16T06:32:39;13.37;;;10.30;;
11048;SDS011;5577;42.706;23.160;2022-10-16T06:35:23;13.23;;;10.77;;
11048;SDS011;5577;42.706;23.160;2022-10-16T06:38:07;13.13;;;9.53;;
11048;SDS011;5577;42.706;23.160;2022-10-16T06:40:53;15.80;;;10.37;;
11048;SDS011;5577;42.706;23.160;2022-10-16T06:43:37;17.57;;;11.27;;
11048;SDS011;5577;42.706;23.160;2022-10-16T06:46:22;16.73;;;11.67;;
11048;SDS011;5577;42.706;23.160;2022-10-16T06:49:08;12.73;;;10.50;;
11048;SDS011;5577;42.706;23.160;2022-10-16T06:51:51;12.10;;;10.70;;
11048;SDS011;5577;42.706;23.160;2022-10-16T06:54:35;16.73;;;11.37;;
11048;SDS011;5577;42.706;23.160;2022-10-16T06:57:19;15.93;;;11.47;;
11048;SDS011;5577;42.706;23.160;2022-10-16T07:00:03;16.47;;;11.40;;
11048;SDS011;5577;42.706;23.160;2022-10-16T07:02:47;13.90;;;11.37;;
11048;SDS011;5577;42.706;23.160;2022-10-16T07:05:31;15.80;;;11.80;;
11048;SDS011;5577;42.706;23.160;2022-10-16T07:08:15;13.27;;;11.03;;
11048;SDS011;5577;42.706;23.160;2022-10-16T07:11:00;14.17;;;11.23;;
11048;SDS011;5577;42.706;23.160;2022-10-16T07:13:44;14.93;;;11.23;;
11048;SDS011;5577;42.706;23.160;2022-10-16T07:16:30;15.00;;;11.93;;
11048;SDS011;5577;42.706;23.160;2022-10-16T07:19:16;13.00;;;10.87;;
11048;SDS011;5577;42.706;23.160;2022-10-16T07:22:01;14.67;;;10.60;;
11048;SDS011;5577;42.706;23.160;2022-10-16T07:24:46;12.67;;;10.43;;
11048;SDS011;5577;42.706;23.160;2022-10-16T07:27:30;13.53;;;10.80;;
11048;SDS011;5577;42.706;23.160;2022-10-16T07:30:14;13.57;;;10.80;;
11048;SDS011;5577;42.706;23.160;2022-10-16T07:32:58;12.07;;;10.57;;
11048;SDS011;5577;42.706;23.160;2022-10-16T07:35:51;15.33;;;10.63;;
11048;SDS011;5577;42.706;23.160;2022-10-16T07:38:37;13.30;;;10.60;;
11048;SDS011;5577;42.706;23.160;2022-10-16T07:41:22;13.97;;;11.33;;
11048;SDS011;5577;42.706;23.160;2022-10-16T07:44:05;17.27;;;11.27;;
11048;SDS011;5577;42.706;23.160;2022-10-16T07:46:50;16.27;;;11.90;;
11048;SDS011;5577;42.706;23.160;2022-10-16T07:49:34;13.90;;;11.43;;
11048;SDS011;5577;42.706;23.160;2022-10-16T07:52:18;16.13;;;12.43;;
11048;SDS011;5577;42.706;23.160;2022-10-16T07:55:02;13.70;;;12.20;;
11048;SDS011;5577;42.706;23.160;2022-10-16T07:57:46;18.60;;;12.07;;
11048;SDS011;5577;42.706;23.160;2022-10-16T08:00:30;15.60;;;12.53;;
11048;SDS011;5577;42.706;23.160;2022-10-16T08:03:14;17.03;;;12.63;;
11048;SDS011;5577;42.706;23.160;2022-10-16T08:05:58;14.37;;;12.37;;
11048;SDS011;5577;42.706;23.160;2022-10-16T08:08:43;17.27;;;13.57;;
11048;SDS011;5577;42.706;23.160;2022-10-16T08:11:27;14.87;;;12.10;;
11048;SDS011;5577;42.706;23.160;2022-10-16T08:14:11;13.97;;;12.47;;
11048;SDS011;5577;42.706;23.160;2022-10-16T08:16:55;15.30;;;12.43;;
11048;SDS011;5577;42.706;23.160;2022-10-16T08:19:39;13.30;;;11.70;;
11048;SDS011;5577;42.706;23.160;2022-10-16T08:22:23;13.87;;;12.27;;
11048;SDS011;5577;42.706;23.160;2022-10-16T08:25:07;13.17;;;10.93;;
11048;SDS011;5577;42.706;23.160;2022-10-16T08:27:51;12.23;;;10.93;;
11048;SDS011;5577;42.706;23.160;2022-10-16T08:30:35;12.83;;;11.53;;
11048;SDS011;5577;42.706;23.160;2022-10-16T08:33:19;13.10;;;11.17;;
11048;SDS011;5577;42.706;23.160;2022-10-16T08:36:04;13.93;;;10.50;;
11048;SDS011;5577;42.706;23.160;2022-10-16T08:38:49;11.10;;;9.87;;
11048;SDS011;5577;42.706;23.160;2022-10-16T08:48:06;13.13;;;11.27;;
11048;SDS011;5577;42.706;23.160;2022-10-16T08:51:00;13.77;;;9.20;;
11048;SDS011;5577;42.706;23.160;2022-10-16T08:53:49;14.80;;;11.43;;
11048;SDS011;5577;42.706;23.160;2022-10-16T08:56:37;14.73;;;11.27;;
11048;SDS011;5577;42.706;23.160;2022-10-16T08:59:21;11.40;;;8.97;;
11048;SDS011;5577;42.706;23.160;2022-10-16T09:02:27;9.30;;;7.17;;
11048;SDS011;5577;42.706;23.160;2022-10-16T09:17:32;6.53;;;5.77;;
11048;SDS011;5577;42.706;23.160;2022-10-16T09:20:29;5.47;;;4.90;;
11048;SDS011;5577;42.706;23.160;2022-10-16T09:23:15;7.13;;;6.07;;
11048;SDS011;5577;42.706;23.160;2022-10-16T09:26:09;6.27;;;5.67;;
11048;SDS011;5577;42.706;23.160;2022-10-16T09:28:55;7.57;;;4.90;;
11048;SDS011;5577;42.706;23.160;2022-10-16T09:31:39;6.60;;;5.43;;
11048;SDS011;5577;42.706;23.160;2022-10-16T09:34:30;9.23;;;6.37;;
11048;SDS011;5577;42.706;23.160;2022-10-16T09:37:18;6.03;;;4.37;;
11048;SDS011;5577;42.706;23.160;2022-10-16T09:40:05;4.60;;;4.00;;
11048;SDS011;5577;42.706;23.160;2022-10-16T09:42:49;6.97;;;5.40;;
11048;SDS011;5577;42.706;23.160;2022-10-16T09:45:39;6.60;;;4.53;;
11048;SDS011;5577;42.706;23.160;2022-10-16T09:48:25;6.33;;;4.80;;
11048;SDS011;5577;42.706;23.160;2022-10-16T09:51:35;5.40;;;4.80;;
11048;SDS011;5577;42.706;23.160;2022-10-16T09:54:20;5.37;;;4.50;;
11048;SDS011;5577;42.706;23.160;2022-10-16T09:57:06;4.57;;;4.00;;
11048;SDS011;5577;42.706;23.160;2022-10-16T09:59:52;5.20;;;4.43;;
11048;SDS011;5577;42.706;23.160;2022-10-16T10:02:39;7.10;;;4.33;;
11048;SDS011;5577;42.706;23.160;2022-10-16T10:05:24;5.50;;;4.60;;
11048;SDS011;5577;42.706;23.160;2022-10-16T10:08:12;5.30;;;4.47;;
11048;SDS011;5577;42.706;23.160;2022-10-16T10:11:01;7.07;;;4.87;;
11048;SDS011;5577;42.706;23.160;2022-10-16T10:13:45;4.53;;;4.13;;
11048;SDS011;5577;42.706;23.160;2022-10-16T10:16:29;4.67;;;3.87;;
11048;SDS011;5577;42.706;23.160;2022-10-16T10:19:17;6.30;;;5.30;;
11048;SDS011;5577;42.706;23.160;2022-10-16T10:22:13;5.13;;;4.50;;
11048;SDS011;5577;42.706;23.160;2022-10-16T10:40:28;5.97;;;3.57;;
11048;SDS011;5577;42.706;23.160;2022-10-16T10:46:27;5.43;;;3.90;;
11048;SDS011;5577;42.706;23.160;2022-10-16T10:52:22;5.13;;;3.77;;
11048;SDS011;5577;42.706;23.160;2022-10-16T10:58:58;4.20;;;3.80;;
11048;SDS011;5577;42.706;23.160;2022-10-16T11:08:00;5.13;;;3.80;;
11048;SDS011;5577;42.706;23.160;2022-10-16T11:10:58;9.10;;;6.93;;
11048;SDS011;5577;42.706;23.160;2022-10-16T11:13:56;4.57;;;4.17;;
11048;SDS011;5577;42.706;23.160;2022-10-16T11:16:54;5.13;;;3.93;;
11048;SDS011;5577;42.706;23.160;2022-10-16T11:19:58;6.63;;;5.80;;
11048;SDS011;5577;42.706;23.160;2022-10-16T11:25:49;5.97;;;3.67;;
11048;SDS011;5577;42.706;23.160;2022-10-16T11:28:37;4.30;;;3.90;;
11048;SDS011;5577;42.706;23.160;2022-10-16T11:31:39;5.40;;;4.50;;
11048;SDS011;5577;42.706;23.160;2022-10-16T11:34:38;5.37;;;3.83;;
11048;SDS011;5577;42.706;23.160;2022-10-16T11:37:32;4.33;;;3.90;;
11048;SDS011;5577;42.706;23.160;2022-10-16T11:40:24;4.67;;;3.77;;
11048;SDS011;5577;42.706;23.160;2022-10-16T11:43:58;4.17;;;3.77;;
11048;SDS011;5577;42.706;23.160;2022-10-16T11:46:20;5.27;;;3.60;;
11048;SDS011;5577;42.706;23.160;2022-10-16T11:49:18;4.73;;;3.70;;
11048;SDS011;5577;42.706;23.160;2022-10-16T11:55:14;7.93;;;4.30;;
11048;SDS011;5577;42.706;23.160;2022-10-16T12:07:08;5.83;;;3.33;;
11048;SDS011;5577;42.706;23.160;2022-10-16T12:09:55;5.57;;;3.90;;
11048;SDS011;5577;42.706;23.160;2022-10-16T12:12:44;4.20;;;3.53;;
11048;SDS011;5577;42.706;23.160;2022-10-16T12:15:31;4.97;;;4.00;;
11048;SDS011;5577;42.706;23.160;2022-10-16T12:18:20;3.90;;;3.50;;
11048;SDS011;5577;42.706;23.160;2022-10-16T12:21:06;4.00;;;3.60;;
11048;SDS011;5577;42.706;23.160;2022-10-16T12:23:51;4.23;;;3.83;;
11048;SDS011;5577;42.706;23.160;2022-10-16T12:26:39;5.20;;;3.87;;
11048;SDS011;5577;42.706;23.160;2022-10-16T12:29:39;8.63;;;3.60;;
11048;SDS011;5577;42.706;23.160;2022-10-16T12:32:35;10.27;;;3.60;;
11048;SDS011;5577;42.706;23.160;2022-10-16T12:35:24;3.03;;;2.63;;
11048;SDS011;5577;42.706;23.160;2022-10-16T12:38:21;4.53;;;2.93;;
11048;SDS011;5577;42.706;23.160;2022-10-16T12:41:11;3.47;;;3.00;;
11048;SDS011;5577;42.706;23.160;2022-10-16T12:44:00;4.50;;;3.40;;
11048;SDS011;5577;42.706;23.160;2022-10-16T12:46:45;3.30;;;3.00;;
11048;SDS011;5577;42.706;23.160;2022-10-16T12:49:36;3.40;;;3.10;;
11048;SDS011;5577;42.706;23.160;2022-10-16T12:55:18;3.80;;;3.40;;
11048;SDS011;5577;42.706;23.160;2022-10-16T13:00:57;4.20;;;2.70;;
11048;SDS011;5577;42.706;23.160;2022-10-16T13:06:53;4.87;;;3.40;;
11048;SDS011;5577;42.706;23.160;2022-10-16T13:10:23;3.80;;;3.40;;
11048;SDS011;5577;42.706;23.160;2022-10-16T13:19:18;7.60;;;3.47;;
11048;SDS011;5577;42.706;23.160;2022-10-16T13:22:30;3.97;;;3.20;;
11048;SDS011;5577;42.706;23.160;2022-10-16T13:28:06;4.53;;;3.50;;
11048;SDS011;5577;42.706;23.160;2022-10-16T13:30:52;5.20;;;3.37;;
11048;SDS011;5577;42.706;23.160;2022-10-16T13:33:39;3.53;;;2.73;;
11048;SDS011;5577;42.706;23.160;2022-10-16T13:36:29;2.73;;;2.53;;
11048;SDS011;5577;42.706;23.160;2022-10-16T13:39:21;3.30;;;2.10;;
11048;SDS011;5577;42.706;23.160;2022-10-16T13:42:11;2.40;;;2.20;;
11048;SDS011;5577;42.706;23.160;2022-10-16T13:44:58;2.97;;;2.23;;
11048;SDS011;5577;42.706;23.160;2022-10-16T13:47:42;2.47;;;2.27;;
11048;SDS011;5577;42.706;23.160;2022-10-16T13:50:26;2.23;;;2.10;;
11048;SDS011;5577;42.706;23.160;2022-10-16T13:53:12;2.47;;;1.90;;
11048;SDS011;5577;42.706;23.160;2022-10-16T13:55:59;4.23;;;2.17;;
11048;SDS011;5577;42.706;23.160;2022-10-16T13:58:45;2.20;;;2.00;;
11048;SDS011;5577;42.706;23.160;2022-10-16T14:04:17;3.37;;;2.40;;
11048;SDS011;5577;42.706;23.160;2022-10-16T14:07:02;3.00;;;2.70;;
11048;SDS011;5577;42.706;23.160;2022-10-16T14:09:47;4.27;;;2.50;;
11048;SDS011;5577;42.706;23.160;2022-10-16T14:12:33;3.17;;;2.87;;
11048;SDS011;5577;42.706;23.160;2022-10-16T14:15:18;4.20;;;2.93;;
11048;SDS011;5577;42.706;23.160;2022-10-16T14:18:03;3.23;;;2.77;;
11048;SDS011;5577;42.706;23.160;2022-10-16T14:20:47;4.50;;;2.97;;
11048;SDS011;5577;42.706;23.160;2022-10-16T14:23:37;3.30;;;3.00;;
11048;SDS011;5577;42.706;23.160;2022-10-16T14:26:23;4.03;;;3.07;;
11048;SDS011;5577;42.706;23.160;2022-10-16T14:29:11;6.40;;;2.93;;
11048;SDS011;5577;42.706;23.160;2022-10-16T14:32:01;2.60;;;2.40;;
11048;SDS011;5577;42.706;23.160;2022-10-16T14:34:52;3.47;;;2.77;;
11048;SDS011;5577;42.706;23.160;2022-10-16T14:37:37;2.67;;;2.30;;
11048;SDS011;5577;42.706;23.160;2022-10-16T14:40:25;2.70;;;2.50;;
11048;SDS011;5577;42.706;23.160;2022-10-16T14:43:14;19.40;;;4.30;;
11048;SDS011;5577;42.706;23.160;2022-10-16T14:46:12;3.77;;;2.77;;
11048;SDS011;5577;42.706;23.160;2022-10-16T14:49:00;5.30;;;3.43;;
11048;SDS011;5577;42.706;23.160;2022-10-16T14:51:47;5.57;;;3.40;;
11048;SDS011;5577;42.706;23.160;2022-10-16T14:54:32;5.83;;;3.07;;
11048;SDS011;5577;42.706;23.160;2022-10-16T14:57:16;3.77;;;2.67;;
11048;SDS011;5577;42.706;23.160;2022-10-16T15:00:02;3.10;;;2.43;;
11048;SDS011;5577;42.706;23.160;2022-10-16T15:02:47;3.93;;;2.70;;
11048;SDS011;5577;42.706;23.160;2022-10-16T15:05:32;3.30;;;2.73;;
11048;SDS011;5577;42.706;23.160;2022-10-16T15:08:16;2.80;;;2.57;;
11048;SDS011;5577;42.706;23.160;2022-10-16T15:11:00;3.93;;;3.00;;
11048;SDS011;5577;42.706;23.160;2022-10-16T15:13:44;3.57;;;2.83;;
11048;SDS011;5577;42.706;23.160;2022-10-16T15:16:29;9.00;;;6.13;;
11048;SDS011;5577;42.706;23.160;2022-10-16T15:19:14;7.57;;;4.70;;
11048;SDS011;5577;42.706;23.160;2022-10-16T15:21:58;4.67;;;3.10;;
11048;SDS011;5577;42.706;23.160;2022-10-16T15:24:42;6.60;;;3.20;;
11048;SDS011;5577;42.706;23.160;2022-10-16T15:27:26;3.67;;;2.90;;
11048;SDS011;5577;42.706;23.160;2022-10-16T15:30:10;3.63;;;3.10;;
11048;SDS011;5577;42.706;23.160;2022-10-16T15:32:55;2.93;;;2.73;;
11048;SDS011;5577;42.706;23.160;2022-10-16T15:35:39;4.37;;;3.20;;
11048;SDS011;5577;42.706;23.160;2022-10-16T15:38:23;5.60;;;3.47;;
11048;SDS011;5577;42.706;23.160;2022-10-16T15:41:11;3.70;;;3.23;;
11048;SDS011;5577;42.706;23.160;2022-10-16T15:43:54;3.33;;;3.03;;
11048;SDS011;5577;42.706;23.160;2022-10-16T15:46:38;7.23;;;3.07;;
11048;SDS011;5577;42.706;23.160;2022-10-16T15:49:22;5.40;;;3.30;;
11048;SDS011;5577;42.706;23.160;2022-10-16T15:52:06;3.30;;;3.00;;
11048;SDS011;5577;42.706;23.160;2022-10-16T15:54:50;4.40;;;3.50;;
11048;SDS011;5577;42.706;23.160;2022-10-16T15:57:34;3.87;;;3.47;;
11048;SDS011;5577;42.706;23.160;2022-10-16T16:00:21;6.40;;;4.00;;
11048;SDS011;5577;42.706;23.160;2022-10-16T16:03:06;4.87;;;3.70;;
11048;SDS011;5577;42.706;23.160;2022-10-16T16:05:50;6.33;;;3.77;;
11048;SDS011;5577;42.706;23.160;2022-10-16T16:08:34;6.50;;;3.80;;
11048;SDS011;5577;42.706;23.160;2022-10-16T16:11:18;5.57;;;3.80;;
11048;SDS011;5577;42.706;23.160;2022-10-16T16:14:03;6.17;;;4.20;;
11048;SDS011;5577;42.706;23.160;2022-10-16T16:16:48;5.13;;;3.60;;
11048;SDS011;5577;42.706;23.160;2022-10-16T16:19:32;5.83;;;4.13;;
11048;SDS011;5577;42.706;23.160;2022-10-16T16:22:17;7.33;;;4.30;;
11048;SDS011;5577;42.706;23.160;2022-10-16T16:25:01;5.43;;;4.27;;
11048;SDS011;5577;42.706;23.160;2022-10-16T16:27:45;15.50;;;11.93;;
11048;SDS011;5577;42.706;23.160;2022-10-16T16:30:30;8.60;;;6.53;;
11048;SDS011;5577;42.706;23.160;2022-10-16T16:33:13;14.77;;;9.20;;
11048;SDS011;5577;42.706;23.160;2022-10-16T16:36:01;23.57;;;15.67;;
11048;SDS011;5577;42.706;23.160;2022-10-16T16:38:47;10.53;;;6.70;;
11048;SDS011;5577;42.706;23.160;2022-10-16T16:41:31;11.67;;;8.27;;
11048;SDS011;5577;42.706;23.160;2022-10-16T16:44:17;20.87;;;14.00;;
11048;SDS011;5577;42.706;23.160;2022-10-16T16:47:01;24.07;;;17.23;;
11048;SDS011;5577;42.706;23.160;2022-10-16T16:49:46;13.00;;;8.20;;
11048;SDS011;5577;42.706;23.160;2022-10-16T16:52:30;13.67;;;9.57;;
11048;SDS011;5577;42.706;23.160;2022-10-16T16:55:14;10.07;;;7.40;;
11048;SDS011;5577;42.706;23.160;2022-10-16T16:57:58;9.30;;;7.93;;
11048;SDS011;5577;42.706;23.160;2022-10-16T17:00:45;23.07;;;17.57;;
11048;SDS011;5577;42.706;23.160;2022-10-16T17:03:31;21.77;;;15.17;;
11048;SDS011;5577;42.706;23.160;2022-10-16T17:06:17;16.17;;;12.17;;
11048;SDS011;5577;42.706;23.160;2022-10-16T17:09:06;26.97;;;21.27;;
11048;SDS011;5577;42.706;23.160;2022-10-16T17:11:51;25.83;;;20.37;;
11048;SDS011;5577;42.706;23.160;2022-10-16T17:14:34;12.60;;;10.80;;
11048;SDS011;5577;42.706;23.160;2022-10-16T17:17:18;13.27;;;10.77;;
11048;SDS011;5577;42.706;23.160;2022-10-16T17:20:02;27.40;;;18.77;;
11048;SDS011;5577;42.706;23.160;2022-10-16T17:22:47;15.87;;;11.50;;
11048;SDS011;5577;42.706;23.160;2022-10-16T17:25:31;19.33;;;14.07;;
11048;SDS011;5577;42.706;23.160;2022-10-16T17:28:18;13.67;;;9.97;;
11048;SDS011;5577;42.706;23.160;2022-10-16T17:31:16;13.37;;;9.37;;
11048;SDS011;5577;42.706;23.160;2022-10-16T17:34:03;11.23;;;9.00;;
11048;SDS011;5577;42.706;23.160;2022-10-16T17:36:49;13.57;;;10.17;;
11048;SDS011;5577;42.706;23.160;2022-10-16T17:39:33;11.10;;;8.30;;
11048;SDS011;5577;42.706;23.160;2022-10-16T17:42:17;11.87;;;9.60;;
11048;SDS011;5577;42.706;23.160;2022-10-16T17:45:02;14.33;;;10.53;;
11048;SDS011;5577;42.706;23.160;2022-10-16T17:47:46;15.30;;;11.07;;
11048;SDS011;5577;42.706;23.160;2022-10-16T17:50:30;14.30;;;11.17;;
11048;SDS011;5577;42.706;23.160;2022-10-16T17:53:14;16.17;;;11.93;;
11048;SDS011;5577;42.706;23.160;2022-10-16T17:56:08;13.30;;;10.47;;
11048;SDS011;5577;42.706;23.160;2022-10-16T17:58:55;16.20;;;10.97;;
11048;SDS011;5577;42.706;23.160;2022-10-16T18:01:42;19.70;;;13.00;;
11048;SDS011;5577;42.706;23.160;2022-10-16T18:04:28;22.57;;;15.13;;
11048;SDS011;5577;42.706;23.160;2022-10-16T18:07:12;34.50;;;22.10;;